Time;durP1;ratioP1;P1;durP2;ratioP2;P2;SDS_P1;SDS_P2;PMS_P1;PMS_P2;Temp;Humidity;BMP_temperature;BMP_pressure;BME280_temperature;BME280_humidity;BME280_pressure;Samples;Min_cycle;Max_cycle;Signal;HPM_P1;HPM_P2
2022/04/12 00:00:45;;;;;;;27.47;18.37;;;;;;;;;;765714;183;919676;-62
2022/04/12 00:03:11;;;;;;;23.48;18.65;;;;;;;;;;765804;182;919380;-62
2022/04/12 00:05:37;;;;;;;30.80;18.97;;;;;;;;;;757405;183;918976;-62
2022/04/12 00:08:03;;;;;;;29.53;19.30;;;;;;;;;;755954;184;919767;-63
2022/04/12 00:10:29;;;;;;;26.10;17.93;;;;;;;;;;760947;183;918069;-63
2022/04/12 00:12:55;;;;;;;27.48;17.80;;;;;;;;;;764312;184;919780;-63
2022/04/12 00:15:21;;;;;;;30.12;18.85;;;;;;;;;;750428;185;934054;-62
2022/04/12 00:20:19;;;;;;;25.40;18.10;;;;;;;;;;758153;183;635446;-63
2022/04/12 00:22:44;;;;;;;26.93;17.80;;;;;;;;;;761034;183;919934;-63
2022/04/12 00:25:10;;;;;;;27.70;18.23;;;;;;;;;;764691;184;918944;-62
2022/04/12 00:27:36;;;;;;;27.17;18.20;;;;;;;;;;759603;184;919986;-62
2022/04/12 00:30:02;;;;;;;25.40;17.40;;;;;;;;;;759483;184;919480;-63
2022/04/12 00:32:28;;;;;;;28.70;18.20;;;;;;;;;;765115;184;918520;-62
2022/04/12 00:34:54;;;;;;;26.90;19.07;;;;;;;;;;745929;184;1032750;-63
2022/04/12 00:37:20;;;;;;;28.92;19.08;;;;;;;;;;752683;184;919114;-62
2022/04/12 00:39:45;;;;;;;25.97;18.10;;;;;;;;;;756150;184;1020623;-63
2022/04/12 00:42:11;;;;;;;23.87;16.67;;;;;;;;;;766031;184;918740;-63
2022/04/12 00:44:37;;;;;;;30.83;17.10;;;;;;;;;;751769;184;919290;-63
2022/04/12 00:47:03;;;;;;;28.47;19.40;;;;;;;;;;757161;184;915067;-62
2022/04/12 00:49:29;;;;;;;28.70;19.13;;;;;;;;;;755829;184;915047;-62
2022/04/12 00:51:55;;;;;;;29.70;19.60;;;;;;;;;;758410;184;914980;-64
2022/04/12 00:54:21;;;;;;;33.10;18.43;;;;;;;;;;755837;184;919826;-63
2022/04/12 00:56:46;;;;;;;29.83;19.50;;;;;;;;;;756247;184;908833;-63
2022/04/12 00:59:12;;;;;;;28.27;19.30;;;;;;;;;;743683;187;919674;-62
2022/04/12 01:01:38;;;;;;;25.37;18.00;;;;;;;;;;744270;185;915993;-62
2022/04/12 01:04:04;;;;;;;35.50;19.50;;;;;;;;;;746231;184;918900;-63
2022/04/12 01:06:30;;;;;;;29.13;19.93;;;;;;;;;;739905;188;916322;-63
2022/04/12 01:08:56;;;;;;;25.30;18.23;;;;;;;;;;751280;187;917744;-63
2022/04/12 01:11:22;;;;;;;30.90;20.50;;;;;;;;;;743485;187;915272;-63
2022/04/12 01:13:47;;;;;;;27.80;18.83;;;;;;;;;;751600;183;915961;-62
2022/04/12 01:16:13;;;;;;;25.67;17.70;;;;;;;;;;756256;184;916006;-62
2022/04/12 01:18:40;;;;;;;28.83;19.60;;;;;;;;;;751588;184;916164;-63
2022/04/12 01:21:05;;;;;;;27.27;19.33;;;;;;;;;;762990;184;915669;-63
2022/04/12 01:23:31;;;;;;;27.00;18.40;;;;;;;;;;750297;184;915871;-63
2022/04/12 01:25:57;;;;;;;29.57;19.27;;;;;;;;;;757806;183;1018785;-62
2022/04/12 01:28:23;;;;;;;27.03;16.60;;;;;;;;;;764121;183;1017842;-61
2022/04/12 01:30:50;;;;;;;28.30;18.63;;;;;;;;;;753555;183;915127;-62
2022/04/12 01:33:15;;;;;;;29.73;20.40;;;;;;;;;;763910;183;916519;-62
2022/04/12 01:35:41;;;;;;;29.47;18.30;;;;;;;;;;759345;184;915538;-60
2022/04/12 01:38:07;;;;;;;29.80;17.90;;;;;;;;;;764316;183;916102;-63
2022/04/12 01:40:32;;;;;;;27.70;17.15;;;;;;;;;;759646;183;921219;-63
2022/04/12 01:42:58;;;;;;;27.07;16.83;;;;;;;;;;748373;184;918929;-64
2022/04/12 01:45:25;;;;;;;21.30;16.20;;;;;;;;;;758170;184;919837;-63
2022/04/12 01:47:51;;;;;;;25.30;16.53;;;;;;;;;;760377;184;919044;-62
2022/04/12 01:50:17;;;;;;;29.20;19.70;;;;;;;;;;759672;183;918052;-62
2022/04/12 01:52:43;;;;;;;32.30;18.80;;;;;;;;;;759247;183;1224126;-62
2022/04/12 01:55:09;;;;;;;26.70;18.00;;;;;;;;;;754490;186;919845;-63
2022/04/12 01:57:35;;;;;;;26.83;18.43;;;;;;;;;;759517;183;918432;-63
2022/04/12 02:00:00;;;;;;;32.93;19.10;;;;;;;;;;746193;187;920431;-63
2022/04/12 02:02:26;;;;;;;30.93;18.77;;;;;;;;;;747794;187;918875;-63
2022/04/12 02:04:52;;;;;;;25.10;18.13;;;;;;;;;;734374;190;918632;-63
2022/04/12 02:07:18;;;;;;;28.00;18.60;;;;;;;;;;757387;183;919678;-63
2022/04/12 02:09:44;;;;;;;29.87;18.47;;;;;;;;;;768206;183;919203;-61
2022/04/12 02:12:11;;;;;;;24.17;18.43;;;;;;;;;;761386;183;917494;-62
2022/04/12 02:14:36;;;;;;;27.80;18.97;;;;;;;;;;747223;185;930142;-63
2022/04/12 02:17:02;;;;;;;25.87;18.40;;;;;;;;;;766869;183;919900;-61
2022/04/12 02:19:28;;;;;;;28.10;19.33;;;;;;;;;;758571;183;921536;-62
2022/04/12 02:21:53;;;;;;;25.03;19.07;;;;;;;;;;754364;184;918702;-62
2022/04/12 02:24:19;;;;;;;33.47;21.17;;;;;;;;;;749166;185;918969;-61
2022/04/12 02:26:45;;;;;;;34.73;21.20;;;;;;;;;;761637;183;921122;-61
2022/04/12 02:29:13;;;;;;;27.37;17.75;;;;;;;;;;754358;183;1024164;-61
2022/04/12 02:31:37;;;;;;;26.10;17.53;;;;;;;;;;757879;184;919743;-62
2022/04/12 02:34:03;;;;;;;35.37;19.93;;;;;;;;;;753388;184;918830;-63
2022/04/12 02:36:28;;;;;;;27.63;17.77;;;;;;;;;;754280;184;912724;-62
2022/04/12 02:38:54;;;;;;;36.60;18.50;;;;;;;;;;748795;184;916003;-61
2022/04/12 02:41:20;;;;;;;33.27;19.67;;;;;;;;;;763855;182;918747;-62
2022/04/12 02:43:46;;;;;;;35.13;21.30;;;;;;;;;;757921;184;1027950;-62
2022/04/12 02:46:12;;;;;;;28.60;18.30;;;;;;;;;;758313;184;919158;-61
2022/04/12 02:48:38;;;;;;;24.90;18.80;;;;;;;;;;756114;184;919996;-60
2022/04/12 02:51:03;;;;;;;25.07;18.27;;;;;;;;;;761853;184;921312;-61
2022/04/12 02:53:29;;;;;;;26.37;18.60;;;;;;;;;;757414;184;918882;-61
2022/04/12 02:55:55;;;;;;;26.60;17.73;;;;;;;;;;754440;184;919074;-61
2022/04/12 02:58:21;;;;;;;29.13;18.20;;;;;;;;;;753678;184;921636;-61
2022/04/12 03:00:47;;;;;;;28.73;18.97;;;;;;;;;;747673;184;920226;-61
2022/04/12 03:03:13;;;;;;;31.13;18.30;;;;;;;;;;750045;185;916524;-62
2022/04/12 03:05:39;;;;;;;29.07;18.00;;;;;;;;;;758004;184;914832;-61
2022/04/12 03:08:05;;;;;;;26.43;17.80;;;;;;;;;;762534;183;914950;-61
2022/04/12 03:10:30;;;;;;;25.40;16.20;;;;;;;;;;758053;183;919251;-61
2022/04/12 03:12:57;;;;;;;25.60;18.48;;;;;;;;;;750534;185;918235;-60
2022/04/12 03:15:22;;;;;;;27.27;17.97;;;;;;;;;;752782;184;919738;-61
2022/04/12 03:17:48;;;;;;;30.40;20.27;;;;;;;;;;749443;183;918595;-61
2022/04/12 03:20:14;;;;;;;29.33;18.12;;;;;;;;;;754916;183;918946;-64
2022/04/12 03:22:41;;;;;;;25.73;16.90;;;;;;;;;;759880;184;919491;-60
2022/04/12 03:25:08;;;;;;;27.00;17.50;;;;;;;;;;756576;183;918806;-62
2022/04/12 03:27:32;;;;;;;26.43;16.90;;;;;;;;;;757482;184;919647;-61
2022/04/12 03:29:58;;;;;;;28.57;18.80;;;;;;;;;;763599;184;918134;-60
2022/04/12 03:32:24;;;;;;;29.07;18.67;;;;;;;;;;755142;184;985910;-60
2022/04/12 03:34:50;;;;;;;36.50;19.83;;;;;;;;;;754875;184;919798;-60
2022/04/12 03:37:15;;;;;;;26.10;17.53;;;;;;;;;;762962;182;919036;-61
2022/04/12 03:39:43;;;;;;;27.10;17.90;;;;;;;;;;753951;183;925184;-60
2022/04/12 03:42:11;;;;;;;26.95;19.90;;;;;;;;;;753253;183;938574;-60
2022/04/12 03:44:33;;;;;;;27.13;18.73;;;;;;;;;;761860;183;919425;-61
2022/04/12 03:46:59;;;;;;;26.03;17.33;;;;;;;;;;756044;184;920145;-60
2022/04/12 03:49:25;;;;;;;25.63;17.77;;;;;;;;;;753962;184;919081;-61
2022/04/12 03:51:51;;;;;;;26.90;17.00;;;;;;;;;;759939;183;918595;-61
2022/04/12 03:54:17;;;;;;;24.03;16.67;;;;;;;;;;764106;183;927936;-61
2022/04/12 03:56:43;;;;;;;32.00;20.00;;;;;;;;;;754714;184;918724;-60
2022/04/12 03:59:08;;;;;;;27.60;19.20;;;;;;;;;;758378;184;918667;-60
2022/04/12 04:01:34;;;;;;;27.63;17.50;;;;;;;;;;761321;183;919295;-61
2022/04/12 04:04:00;;;;;;;25.93;17.00;;;;;;;;;;753856;184;919109;-61
2022/04/12 04:06:26;;;;;;;26.73;18.97;;;;;;;;;;757471;184;919574;-61
2022/04/12 04:08:52;;;;;;;25.70;18.70;;;;;;;;;;754481;183;1018919;-61
2022/04/12 04:11:18;;;;;;;30.73;19.67;;;;;;;;;;761240;183;613854;-63
2022/04/12 04:13:44;;;;;;;25.57;18.30;;;;;;;;;;758189;184;628834;-62
2022/04/12 04:16:09;;;;;;;31.53;21.17;;;;;;;;;;760455;183;917806;-62
2022/04/12 04:18:35;;;;;;;27.97;19.33;;;;;;;;;;763020;184;649270;-61
2022/04/12 04:21:01;;;;;;;31.03;18.30;;;;;;;;;;755275;183;627544;-62
2022/04/12 04:23:27;;;;;;;32.00;19.03;;;;;;;;;;754747;184;624219;-61
2022/04/12 04:25:54;;;;;;;27.67;16.93;;;;;;;;;;756226;185;630896;-61
2022/04/12 04:28:22;;;;;;;27.90;17.57;;;;;;;;;;754240;183;1019254;-61
2022/04/12 04:30:49;;;;;;;26.90;18.33;;;;;;;;;;757109;183;916444;-61
2022/04/12 04:33:14;;;;;;;29.90;18.80;;;;;;;;;;753152;183;920271;-61
2022/04/12 04:35:39;;;;;;;26.30;17.77;;;;;;;;;;760515;184;919488;-61
2022/04/12 04:38:05;;;;;;;23.93;17.20;;;;;;;;;;756944;183;917803;-60
2022/04/12 04:40:31;;;;;;;29.10;19.15;;;;;;;;;;756798;183;890427;-61
2022/04/12 04:42:58;;;;;;;30.70;18.70;;;;;;;;;;758034;184;919343;-61
2022/04/12 04:45:23;;;;;;;32.23;20.73;;;;;;;;;;752170;183;917324;-60
2022/04/12 04:47:53;;;;;;;39.73;23.50;;;;;;;;;;754090;183;912873;-61
2022/04/12 04:50:18;;;;;;;30.63;23.20;;;;;;;;;;759444;182;811425;-61
2022/04/12 04:52:44;;;;;;;33.08;22.10;;;;;;;;;;763666;182;919373;-61
2022/04/12 04:55:10;;;;;;;31.97;24.10;;;;;;;;;;763451;182;633863;-61
2022/04/12 04:57:38;;;;;;;35.07;23.53;;;;;;;;;;756916;182;1021635;-61
2022/04/12 05:00:04;;;;;;;32.13;21.60;;;;;;;;;;759771;184;1021364;-61
2022/04/12 05:02:30;;;;;;;28.00;20.40;;;;;;;;;;756734;184;919487;-64
2022/04/12 05:04:55;;;;;;;36.13;21.57;;;;;;;;;;754797;183;914071;-61
2022/04/12 05:07:25;;;;;;;37.13;22.97;;;;;;;;;;765320;183;919385;-62
2022/04/12 05:09:51;;;;;;;32.90;23.27;;;;;;;;;;763119;183;918737;-61
2022/04/12 05:12:17;;;;;;;33.30;22.00;;;;;;;;;;758800;183;919399;-64
2022/04/12 05:14:43;;;;;;;37.37;23.53;;;;;;;;;;753880;183;919161;-61
2022/04/12 05:17:09;;;;;;;41.87;24.73;;;;;;;;;;765435;183;919997;-62
2022/04/12 05:19:34;;;;;;;36.63;24.50;;;;;;;;;;753090;184;915649;-61
2022/04/12 05:22:00;;;;;;;39.90;23.40;;;;;;;;;;755382;184;918545;-60
2022/04/12 05:24:26;;;;;;;36.40;21.92;;;;;;;;;;764171;184;919218;-61
2022/04/12 05:26:52;;;;;;;45.00;24.60;;;;;;;;;;755323;183;919431;-62
2022/04/12 05:29:18;;;;;;;34.90;24.00;;;;;;;;;;753169;184;919660;-62
2022/04/12 05:31:44;;;;;;;37.88;22.15;;;;;;;;;;757772;184;919770;-63
2022/04/12 05:34:09;;;;;;;37.07;22.17;;;;;;;;;;757932;183;919725;-62
2022/04/12 05:36:35;;;;;;;34.40;22.70;;;;;;;;;;754492;183;919820;-62
2022/04/12 05:39:01;;;;;;;37.13;20.00;;;;;;;;;;751668;184;919079;-62
2022/04/12 05:41:27;;;;;;;32.93;22.13;;;;;;;;;;762860;183;920222;-63
2022/04/12 05:43:53;;;;;;;35.33;21.77;;;;;;;;;;756262;184;917867;-62
2022/04/12 05:46:19;;;;;;;35.23;22.93;;;;;;;;;;754157;183;918963;-61
2022/04/12 05:48:45;;;;;;;29.75;20.17;;;;;;;;;;762450;184;919559;-62
2022/04/12 05:51:10;;;;;;;30.43;19.67;;;;;;;;;;756293;184;920120;-61
2022/04/12 05:53:36;;;;;;;30.65;20.45;;;;;;;;;;757004;184;919338;-62
2022/04/12 05:56:02;;;;;;;27.97;18.23;;;;;;;;;;760265;183;918618;-62
2022/04/12 05:58:30;;;;;;;27.73;18.03;;;;;;;;;;754595;184;920034;-62
2022/04/12 06:00:54;;;;;;;20.70;15.63;;;;;;;;;;757948;181;918557;-62
2022/04/12 06:03:20;;;;;;;22.63;16.40;;;;;;;;;;756584;182;919728;-62
2022/04/12 06:05:46;;;;;;;22.03;13.70;;;;;;;;;;751925;187;917272;-63
2022/04/12 06:08:11;;;;;;;20.60;14.63;;;;;;;;;;757747;182;915737;-62
2022/04/12 06:10:37;;;;;;;20.40;13.87;;;;;;;;;;754254;183;915826;-63
2022/04/12 06:13:03;;;;;;;16.67;12.13;;;;;;;;;;763252;184;915382;-62
2022/04/12 06:15:29;;;;;;;26.73;13.93;;;;;;;;;;757630;184;919081;-62
2022/04/12 06:17:55;;;;;;;36.43;24.17;;;;;;;;;;754602;183;915913;-62
2022/04/12 06:20:21;;;;;;;41.57;24.13;;;;;;;;;;761010;183;923199;-62
2022/04/12 06:22:46;;;;;;;23.83;13.57;;;;;;;;;;759371;183;1013513;-62
2022/04/12 06:25:14;;;;;;;17.85;11.00;;;;;;;;;;758782;183;929255;-61
2022/04/12 06:27:38;;;;;;;20.08;12.18;;;;;;;;;;755591;183;917658;-60
2022/04/12 06:30:10;;;;;;;11.90;7.87;;;;;;;;;;757784;183;919544;-62
2022/04/12 06:32:36;;;;;;;27.87;16.67;;;;;;;;;;748759;183;918873;-61
2022/04/12 06:35:02;;;;;;;15.13;10.13;;;;;;;;;;747395;184;925124;-61
2022/04/12 06:37:28;;;;;;;12.27;8.70;;;;;;;;;;741053;188;917729;-62
2022/04/12 06:39:54;;;;;;;12.80;7.27;;;;;;;;;;746297;184;1014475;-61
2022/04/12 06:42:20;;;;;;;10.10;7.03;;;;;;;;;;747360;184;921663;-62
2022/04/12 06:44:46;;;;;;;13.43;8.27;;;;;;;;;;766637;183;919877;-61
2022/04/12 06:47:11;;;;;;;13.50;7.50;;;;;;;;;;764625;183;813610;-61
2022/04/12 06:49:37;;;;;;;74.90;30.40;;;;;;;;;;759295;183;916200;-61
2022/04/12 06:52:03;;;;;;;31.37;15.20;;;;;;;;;;757269;183;901706;-61
2022/04/12 06:54:29;;;;;;;14.83;7.37;;;;;;;;;;764191;184;919082;-62
2022/04/12 06:56:55;;;;;;;14.30;8.07;;;;;;;;;;756549;184;919002;-61
2022/04/12 06:59:21;;;;;;;16.23;8.37;;;;;;;;;;752186;184;918873;-61
2022/04/12 07:01:47;;;;;;;11.30;8.00;;;;;;;;;;753461;184;920688;-61
2022/04/12 07:04:12;;;;;;;13.13;7.23;;;;;;;;;;757775;185;922491;-61
2022/04/12 07:06:38;;;;;;;13.70;9.30;;;;;;;;;;747736;185;919553;-61
2022/04/12 07:09:05;;;;;;;12.73;8.70;;;;;;;;;;758783;185;918042;-61
2022/04/12 07:11:30;;;;;;;12.93;8.83;;;;;;;;;;758815;180;919421;-60
2022/04/12 07:13:56;;;;;;;12.60;8.53;;;;;;;;;;760582;184;919416;-60
2022/04/12 07:16:22;;;;;;;12.80;8.05;;;;;;;;;;760061;184;919797;-61
2022/04/12 07:18:47;;;;;;;13.03;7.80;;;;;;;;;;759826;183;920629;-61
2022/04/12 07:21:15;;;;;;;15.00;9.07;;;;;;;;;;745067;183;918867;-61
2022/04/12 07:23:41;;;;;;;14.57;9.23;;;;;;;;;;750959;183;974136;-62
2022/04/12 07:26:05;;;;;;;23.00;9.37;;;;;;;;;;756776;183;918916;-61
2022/04/12 07:28:31;;;;;;;12.90;8.90;;;;;;;;;;753251;184;919083;-61
2022/04/12 07:30:57;;;;;;;13.30;7.43;;;;;;;;;;748917;184;919026;-61
2022/04/12 07:33:23;;;;;;;14.87;7.77;;;;;;;;;;767032;183;919402;-61
2022/04/12 07:35:48;;;;;;;11.68;6.95;;;;;;;;;;750361;184;919501;-61
2022/04/12 07:38:14;;;;;;;12.30;7.47;;;;;;;;;;747843;184;919297;-62
2022/04/12 07:40:40;;;;;;;13.00;6.23;;;;;;;;;;751278;184;919455;-61
2022/04/12 07:43:06;;;;;;;12.07;6.30;;;;;;;;;;763627;183;919161;-61
2022/04/12 07:45:32;;;;;;;8.40;5.83;;;;;;;;;;761487;183;919282;-62
2022/04/12 07:47:59;;;;;;;9.07;5.10;;;;;;;;;;755139;183;920135;-62
2022/04/12 07:50:23;;;;;;;8.10;5.97;;;;;;;;;;764701;183;918955;-62
2022/04/12 07:52:49;;;;;;;11.27;7.37;;;;;;;;;;760209;183;925977;-61
2022/04/12 07:55:15;;;;;;;9.93;5.60;;;;;;;;;;750650;185;918819;-62
2022/04/12 07:57:41;;;;;;;7.57;4.87;;;;;;;;;;753882;184;919544;-62
2022/04/12 08:00:07;;;;;;;8.90;5.47;;;;;;;;;;747619;184;919079;-62
2022/04/12 08:02:33;;;;;;;8.23;5.23;;;;;;;;;;751294;184;1213173;-62
2022/04/12 08:04:59;;;;;;;8.97;5.30;;;;;;;;;;763325;184;918714;-63
2022/04/12 08:07:25;;;;;;;10.33;5.67;;;;;;;;;;757292;184;919155;-63
2022/04/12 08:09:51;;;;;;;12.52;5.62;;;;;;;;;;756916;184;919089;-61
2022/04/12 08:12:17;;;;;;;13.03;5.17;;;;;;;;;;757721;184;919651;-63
2022/04/12 08:14:42;;;;;;;8.57;6.03;;;;;;;;;;767478;183;919103;-62
2022/04/12 08:17:08;;;;;;;8.95;4.95;;;;;;;;;;761821;183;918656;-62
2022/04/12 08:19:34;;;;;;;9.30;5.20;;;;;;;;;;757624;184;919472;-62
2022/04/12 08:22:01;;;;;;;11.37;5.43;;;;;;;;;;762288;184;919265;-62
2022/04/12 08:24:26;;;;;;;8.37;4.77;;;;;;;;;;760128;183;920162;-62
2022/04/12 08:26:52;;;;;;;12.13;4.67;;;;;;;;;;754531;180;919318;-63
2022/04/12 08:29:17;;;;;;;7.70;4.43;;;;;;;;;;739589;190;919221;-63
2022/04/12 08:31:44;;;;;;;7.07;4.10;;;;;;;;;;748304;186;1087467;-63
2022/04/12 08:34:09;;;;;;;13.25;3.90;;;;;;;;;;754381;183;919213;-63
2022/04/12 08:36:35;;;;;;;11.33;5.10;;;;;;;;;;749228;185;928750;-63
2022/04/12 08:39:01;;;;;;;8.50;4.63;;;;;;;;;;756849;184;949644;-64
2022/04/12 08:41:27;;;;;;;15.93;5.40;;;;;;;;;;749564;184;919558;-63
2022/04/12 08:43:53;;;;;;;8.27;4.60;;;;;;;;;;755410;184;925219;-64
2022/04/12 08:46:19;;;;;;;8.00;4.87;;;;;;;;;;760662;184;931563;-63
2022/04/12 08:48:45;;;;;;;10.63;5.43;;;;;;;;;;754252;184;918974;-64
2022/04/12 08:51:11;;;;;;;7.32;4.43;;;;;;;;;;759412;184;920731;-64
2022/04/12 08:53:37;;;;;;;7.37;4.00;;;;;;;;;;763425;184;919242;-63
2022/04/12 08:56:03;;;;;;;12.93;5.00;;;;;;;;;;760095;183;918200;-64
2022/04/12 08:58:28;;;;;;;11.10;4.70;;;;;;;;;;759097;184;919563;-64
2022/04/12 09:00:54;;;;;;;10.48;4.72;;;;;;;;;;759707;183;918954;-64
2022/04/12 09:03:20;;;;;;;8.43;4.60;;;;;;;;;;763613;183;920943;-65
2022/04/12 09:05:46;;;;;;;11.43;4.03;;;;;;;;;;762817;183;920957;-65
2022/04/12 09:08:24;;;;;;;6.47;3.55;;;;;;;;;;760455;183;1023652;-64
2022/04/12 09:10:50;;;;;;;7.17;4.20;;;;;;;;;;755508;183;923435;-63
2022/04/12 09:13:16;;;;;;;9.80;4.20;;;;;;;;;;755581;185;917515;-64
2022/04/12 09:15:41;;;;;;;9.83;4.20;;;;;;;;;;742652;184;921252;-64
2022/04/12 09:18:07;;;;;;;8.47;4.03;;;;;;;;;;753042;184;922416;-64
2022/04/12 09:20:33;;;;;;;7.90;3.50;;;;;;;;;;763136;184;918866;-64
2022/04/12 09:22:59;;;;;;;8.77;4.33;;;;;;;;;;748474;185;918926;-64
2022/04/12 09:25:25;;;;;;;7.73;4.83;;;;;;;;;;740359;187;918811;-64
2022/04/12 09:27:51;;;;;;;7.27;4.03;;;;;;;;;;754828;185;943610;-64
2022/04/12 09:30:17;;;;;;;5.90;3.40;;;;;;;;;;749986;182;918496;-65
2022/04/12 09:32:45;;;;;;;5.57;3.03;;;;;;;;;;749682;184;916854;-65
2022/04/12 09:35:11;;;;;;;6.67;4.07;;;;;;;;;;751302;183;916200;-64
2022/04/12 09:37:37;;;;;;;5.10;3.10;;;;;;;;;;761167;182;915768;-65
2022/04/12 09:40:04;;;;;;;8.83;4.40;;;;;;;;;;762503;182;915132;-65
2022/04/12 09:42:35;;;;;;;6.65;3.75;;;;;;;;;;760711;183;914701;-65
2022/04/12 09:45:01;;;;;;;9.07;4.77;;;;;;;;;;758548;183;919264;-65
2022/04/12 09:47:27;;;;;;;6.47;4.60;;;;;;;;;;752701;184;914319;-65
2022/04/12 09:49:53;;;;;;;5.53;3.30;;;;;;;;;;755781;184;922365;-65
2022/04/12 09:52:19;;;;;;;6.50;3.90;;;;;;;;;;758300;183;918874;-64
2022/04/12 09:54:45;;;;;;;7.10;4.30;;;;;;;;;;761804;184;918757;-65
2022/04/12 09:57:10;;;;;;;7.23;5.10;;;;;;;;;;750081;184;919017;-65
2022/04/12 09:59:37;;;;;;;12.13;5.23;;;;;;;;;;757202;183;918625;-65
2022/04/12 10:02:02;;;;;;;11.13;4.43;;;;;;;;;;770796;183;608887;-67
2022/04/12 10:04:28;;;;;;;8.63;4.60;;;;;;;;;;751384;182;919175;-66
2022/04/12 10:06:54;;;;;;;6.17;4.10;;;;;;;;;;758747;184;917486;-65
2022/04/12 10:09:20;;;;;;;8.00;4.43;;;;;;;;;;762078;184;922591;-65
2022/04/12 10:11:45;;;;;;;6.60;3.80;;;;;;;;;;754657;184;919203;-64
2022/04/12 10:14:11;;;;;;;6.67;4.10;;;;;;;;;;755098;184;931497;-65
2022/04/12 10:16:39;;;;;;;6.57;3.50;;;;;;;;;;758390;184;918340;-67
2022/04/12 10:19:03;;;;;;;7.30;3.63;;;;;;;;;;760087;183;919432;-66
2022/04/12 10:21:29;;;;;;;8.07;3.83;;;;;;;;;;753154;183;999554;-66
2022/04/12 10:23:55;;;;;;;6.27;4.33;;;;;;;;;;752039;184;918795;-65
2022/04/12 10:26:20;;;;;;;5.23;3.47;;;;;;;;;;751381;184;921239;-66
2022/04/12 10:28:46;;;;;;;5.40;3.33;;;;;;;;;;744958;185;919378;-66
2022/04/12 10:31:20;;;;;;;6.30;3.30;;;;;;;;;;750933;185;1021468;-66
2022/04/12 10:33:51;;;;;;;11.83;3.97;;;;;;;;;;753427;183;915387;-66
2022/04/12 10:36:17;;;;;;;5.07;3.57;;;;;;;;;;761914;183;920576;-66
2022/04/12 10:38:43;;;;;;;9.80;4.47;;;;;;;;;;749878;184;921597;-65
2022/04/12 10:41:13;;;;;;;9.40;5.20;;;;;;;;;;752113;184;923825;-66
2022/04/12 10:43:39;;;;;;;5.07;3.40;;;;;;;;;;751412;185;920980;-64
2022/04/12 10:46:06;;;;;;;7.37;4.47;;;;;;;;;;731941;188;1739873;-66
2022/04/12 10:48:32;;;;;;;8.00;4.07;;;;;;;;;;754533;186;624357;-66
2022/04/12 10:50:58;;;;;;;6.53;3.70;;;;;;;;;;748808;185;917900;-69
2022/04/12 10:53:30;;;;;;;7.97;4.57;;;;;;;;;;763629;182;950807;-66
2022/04/12 10:55:56;;;;;;;9.27;5.33;;;;;;;;;;759049;183;918789;-66
2022/04/12 10:58:30;;;;;;;7.13;4.20;;;;;;;;;;755886;184;1018836;-66
2022/04/12 11:00:56;;;;;;;8.97;4.10;;;;;;;;;;753296;184;993788;-66
2022/04/12 11:03:26;;;;;;;7.30;4.50;;;;;;;;;;759589;183;918255;-66
2022/04/12 11:05:52;;;;;;;6.90;4.17;;;;;;;;;;751122;183;916781;-66
2022/04/12 11:08:33;;;;;;;10.03;4.70;;;;;;;;;;756637;183;914986;-65
2022/04/12 11:11:13;;;;;;;8.02;4.70;;;;;;;;;;752530;184;917351;-66
2022/04/12 11:13:39;;;;;;;10.90;4.00;;;;;;;;;;755271;184;919680;-67
2022/04/12 11:16:08;;;;;;;9.60;4.37;;;;;;;;;;759702;183;918754;-66
2022/04/12 11:18:40;;;;;;;6.23;3.80;;;;;;;;;;763767;183;914499;-67
2022/04/12 11:21:06;;;;;;;7.07;3.70;;;;;;;;;;754912;183;921271;-67
2022/04/12 11:23:37;;;;;;;8.35;4.90;;;;;;;;;;753822;183;919401;-66
2022/04/12 11:26:04;;;;;;;6.93;4.50;;;;;;;;;;753108;184;930126;-67
2022/04/12 11:28:30;;;;;;;7.30;4.27;;;;;;;;;;759231;183;913668;-68
2022/04/12 11:30:57;;;;;;;7.87;4.50;;;;;;;;;;756907;184;918150;-68
2022/04/12 11:33:30;;;;;;;10.73;5.33;;;;;;;;;;761174;183;919301;-67
2022/04/12 11:35:56;;;;;;;8.50;4.50;;;;;;;;;;755188;183;913740;-66
2022/04/12 11:38:22;;;;;;;7.80;5.10;;;;;;;;;;745730;187;914504;-67
2022/04/12 11:40:48;;;;;;;8.27;4.33;;;;;;;;;;750019;183;918801;-67
2022/04/12 11:43:19;;;;;;;11.17;5.57;;;;;;;;;;748889;184;916156;-66
2022/04/12 11:45:44;;;;;;;6.30;4.10;;;;;;;;;;762304;183;915440;-66
2022/04/12 11:48:10;;;;;;;7.73;4.57;;;;;;;;;;752503;184;1119800;-67
2022/04/12 11:50:36;;;;;;;7.83;4.03;;;;;;;;;;753940;184;922520;-67
2022/04/12 11:53:03;;;;;;;8.07;4.00;;;;;;;;;;759700;183;916773;-67
2022/04/12 11:55:28;;;;;;;7.90;3.90;;;;;;;;;;752754;184;916639;-67
2022/04/12 11:57:53;;;;;;;6.50;4.20;;;;;;;;;;759775;181;915213;-67
2022/04/12 12:00:21;;;;;;;8.27;4.27;;;;;;;;;;757902;184;916186;-67
2022/04/12 12:02:45;;;;;;;8.23;4.03;;;;;;;;;;761318;182;926884;-67
2022/04/12 12:05:11;;;;;;;6.63;4.03;;;;;;;;;;757153;182;916390;-66
2022/04/12 12:07:37;;;;;;;7.22;3.75;;;;;;;;;;756288;183;915005;-68
2022/04/12 12:10:05;;;;;;;6.30;3.93;;;;;;;;;;761995;184;916164;-67
2022/04/12 12:12:32;;;;;;;5.93;3.67;;;;;;;;;;757947;183;916468;-67
2022/04/12 12:14:57;;;;;;;5.73;3.63;;;;;;;;;;759348;183;918069;-67
2022/04/12 12:17:24;;;;;;;8.02;4.10;;;;;;;;;;760098;184;920685;-66
2022/04/12 12:19:50;;;;;;;7.70;3.83;;;;;;;;;;754804;184;922861;-68
2022/04/12 12:22:16;;;;;;;7.80;3.33;;;;;;;;;;751463;184;919051;-67
2022/04/12 12:24:47;;;;;;;6.30;4.80;;;;;;;;;;756966;184;914560;-68
2022/04/12 12:27:13;;;;;;;6.07;4.10;;;;;;;;;;757516;184;918505;-66
2022/04/12 12:29:39;;;;;;;6.75;3.97;;;;;;;;;;753014;184;919032;-67
2022/04/12 12:32:05;;;;;;;7.50;4.13;;;;;;;;;;752165;183;928239;-67
2022/04/12 12:34:32;;;;;;;5.78;3.25;;;;;;;;;;756462;184;1020493;-67
2022/04/12 12:36:58;;;;;;;6.77;3.03;;;;;;;;;;746666;187;907373;-67
2022/04/12 12:39:25;;;;;;;6.07;3.67;;;;;;;;;;751017;183;918180;-68
2022/04/12 12:41:51;;;;;;;7.00;3.73;;;;;;;;;;750949;184;624914;-67
2022/04/12 12:44:17;;;;;;;6.00;3.40;;;;;;;;;;762378;184;624667;-68
2022/04/12 12:46:43;;;;;;;6.27;3.70;;;;;;;;;;760068;183;633468;-67
2022/04/12 12:49:12;;;;;;;6.57;3.87;;;;;;;;;;755159;184;918968;-68
2022/04/12 12:51:38;;;;;;;6.20;3.73;;;;;;;;;;760538;183;913810;-68
2022/04/12 12:54:03;;;;;;;13.20;4.50;;;;;;;;;;747678;184;916008;-67
2022/04/12 12:56:31;;;;;;;8.47;3.40;;;;;;;;;;755576;184;629055;-67
2022/04/12 12:59:03;;;;;;;5.63;3.20;;;;;;;;;;749641;184;913043;-65
2022/04/12 13:01:29;;;;;;;4.83;3.00;;;;;;;;;;757999;183;1226415;-67
2022/04/12 13:03:55;;;;;;;8.02;3.62;;;;;;;;;;752318;183;1014655;-69
2022/04/12 13:06:20;;;;;;;9.60;4.18;;;;;;;;;;759594;183;919864;-68
2022/04/12 13:08:46;;;;;;;6.77;3.80;;;;;;;;;;756601;184;918485;-67
2022/04/12 13:11:12;;;;;;;5.63;3.87;;;;;;;;;;748390;184;888661;-68
2022/04/12 13:13:38;;;;;;;5.68;3.55;;;;;;;;;;753904;182;918968;-67
2022/04/12 13:16:04;;;;;;;4.93;3.03;;;;;;;;;;751954;184;915861;-67
2022/04/12 13:18:30;;;;;;;6.03;3.77;;;;;;;;;;762495;183;931062;-67
2022/04/12 13:20:56;;;;;;;6.70;3.43;;;;;;;;;;755099;183;941995;-67
2022/04/12 13:23:21;;;;;;;6.37;3.20;;;;;;;;;;756956;183;916344;-69
2022/04/12 13:25:47;;;;;;;5.70;4.00;;;;;;;;;;766089;183;918910;-67
2022/04/12 13:28:14;;;;;;;6.83;3.77;;;;;;;;;;761666;183;915730;-68
2022/04/12 13:30:39;;;;;;;9.90;3.97;;;;;;;;;;753405;183;915611;-67
2022/04/12 13:33:05;;;;;;;12.07;4.00;;;;;;;;;;761312;183;918874;-67
2022/04/12 13:35:31;;;;;;;7.13;4.07;;;;;;;;;;753704;184;919786;-67
2022/04/12 13:37:57;;;;;;;7.20;3.95;;;;;;;;;;752775;183;918116;-68
2022/04/12 13:40:22;;;;;;;5.57;3.27;;;;;;;;;;754270;184;918962;-67
2022/04/12 13:42:48;;;;;;;7.60;4.55;;;;;;;;;;762772;184;919201;-67
2022/04/12 13:45:14;;;;;;;10.00;3.97;;;;;;;;;;758886;183;918481;-67
2022/04/12 13:47:41;;;;;;;12.13;4.53;;;;;;;;;;757940;184;919000;-68
2022/04/12 13:50:07;;;;;;;6.47;4.20;;;;;;;;;;760655;184;1017439;-67
2022/04/12 13:52:32;;;;;;;9.87;4.60;;;;;;;;;;750863;184;919628;-66
2022/04/12 13:54:59;;;;;;;7.30;3.40;;;;;;;;;;758428;183;630328;-67
2022/04/12 13:57:24;;;;;;;7.13;4.70;;;;;;;;;;762602;184;1012071;-68
2022/04/12 13:59:50;;;;;;;9.70;4.20;;;;;;;;;;752574;184;926014;-69
2022/04/12 14:02:16;;;;;;;7.30;3.30;;;;;;;;;;758934;184;919754;-68
2022/04/12 14:04:42;;;;;;;8.10;4.43;;;;;;;;;;757948;183;1021180;-69
2022/04/12 14:07:08;;;;;;;8.73;4.62;;;;;;;;;;763051;183;918705;-67
2022/04/12 14:09:33;;;;;;;8.00;4.30;;;;;;;;;;756318;183;919524;-68
2022/04/12 14:11:59;;;;;;;6.70;3.97;;;;;;;;;;754093;184;919732;-68